Time;durP1;ratioP1;P1;durP2;ratioP2;P2;SDS_P1;SDS_P2;PMS_P1;PMS_P2;Temp;Humidity;BMP_temperature;BMP_pressure;BME280_temperature;BME280_humidity;BME280_pressure;Samples;Min_cycle;Max_cycle;Signal;HPM_P1;HPM_P2
2022/10/17 00:02:02;;;;;;;9.60;3.40;;;16.90;99.90;;;;;;5048229;28;20045;-64
2022/10/17 00:04:28;;;;;;;6.82;3.40;;;16.90;99.90;;;;;;5048165;28;20052;-65
2022/10/17 00:06:55;;;;;;;9.48;3.33;;;16.90;99.90;;;;;;5048356;28;20052;-65
2022/10/17 00:09:22;;;;;;;13.35;3.67;;;16.90;99.90;;;;;;5051150;28;20045;-66
2022/10/17 00:11:49;;;;;;;11.25;4.28;;;16.90;99.90;;;;;;5051718;28;20051;-64
2022/10/17 00:14:15;;;;;;;9.38;3.35;;;16.90;99.90;;;;;;5051914;28;20516;-64
2022/10/17 00:16:42;;;;;;;7.75;2.88;;;16.90;99.90;;;;;;5051831;28;20120;-64
2022/10/17 00:19:11;;;;;;;8.02;3.80;;;16.90;99.90;;;;;;5051647;28;20508;-66
2022/10/17 00:21:37;;;;;;;12.53;2.87;;;16.90;99.90;;;;;;4702266;28;10000983;-64
2022/10/17 00:24:04;;;;;;;9.95;2.72;;;16.90;99.90;;;;;;5045880;28;20152;-64
2022/10/17 00:26:31;;;;;;;7.95;3.28;;;16.90;99.90;;;;;;5049962;28;20051;-64
2022/10/17 00:28:58;;;;;;;14.98;4.82;;;16.90;99.90;;;;;;5050834;28;20053;-63
2022/10/17 00:31:25;;;;;;;6.95;3.08;;;16.90;99.90;;;;;;5049998;28;20048;-64
2022/10/17 00:33:52;;;;;;;12.60;2.63;;;16.90;99.90;;;;;;5048213;28;20052;-64
2022/10/17 00:36:23;;;;;;;11.55;2.95;;;16.90;99.90;;;;;;5049916;28;20041;-64
2022/10/17 00:38:53;;;;;;;12.75;2.90;;;16.90;99.90;;;;;;5049254;28;20048;-66
2022/10/17 00:41:21;;;;;;;15.10;4.97;;;16.90;99.90;;;;;;5049474;28;20045;-63
2022/10/17 00:43:52;;;;;;;6.78;2.95;;;16.90;99.90;;;;;;5049601;28;20055;-64
2022/10/17 00:46:20;;;;;;;10.00;2.90;;;16.90;99.90;;;;;;5051815;28;20045;-63
2022/10/17 00:48:48;;;;;;;7.95;2.42;;;16.90;99.90;;;;;;5050036;28;20068;-63
2022/10/17 00:51:15;;;;;;;11.45;2.50;;;16.90;99.90;;;;;;5050047;28;20045;-63
2022/10/17 00:53:42;;;;;;;12.00;3.03;;;16.90;99.90;;;;;;5049795;28;20047;-64
2022/10/17 00:56:08;;;;;;;13.10;4.68;;;16.90;99.90;;;;;;5049875;28;20049;-64
2022/10/17 00:58:35;;;;;;;17.10;3.65;;;16.90;99.90;;;;;;5033381;28;20063;-63
2022/10/17 01:01:02;;;;;;;11.40;2.90;;;16.90;99.90;;;;;;5051067;28;20049;-63
2022/10/17 01:03:29;;;;;;;6.60;2.53;;;16.90;99.90;;;;;;5050897;28;20045;-64
2022/10/17 01:05:56;;;;;;;9.90;2.38;;;16.90;99.90;;;;;;5033322;28;20332;-63
2022/10/17 01:08:22;;;;;;;7.65;2.28;;;16.80;99.90;;;;;;5050858;28;20049;-65
2022/10/17 01:11:11;;;;;;;7.25;2.90;;;16.80;99.90;;;;;;5049588;28;20041;-63
2022/10/17 01:13:43;;;;;;;8.93;2.38;;;16.80;99.90;;;;;;5050580;28;20055;-64
2022/10/17 01:16:38;;;;;;;8.13;3.00;;;16.80;99.90;;;;;;5033988;28;20040;-64
2022/10/17 01:19:43;;;;;;;6.97;2.75;;;16.80;99.90;;;;;;5050201;28;20055;-64
2022/10/17 01:22:15;;;;;;;9.88;2.60;;;16.80;99.90;;;;;;5046274;28;20041;-65
2022/10/17 01:24:54;;;;;;;4.60;1.80;;;16.80;99.90;;;;;;5050858;28;20451;-63
2022/10/17 01:27:39;;;;;;;8.10;2.75;;;16.80;99.90;;;;;;5051108;28;20045;-65
2022/10/17 01:30:28;;;;;;;13.15;2.78;;;16.80;99.90;;;;;;5051202;28;20067;-64
2022/10/17 01:33:16;;;;;;;10.32;2.70;;;16.70;99.90;;;;;;5051071;28;20051;-63
2022/10/17 01:35:54;;;;;;;6.68;2.72;;;16.70;99.90;;;;;;5049845;28;20052;-64
2022/10/17 01:38:43;;;;;;;13.10;2.75;;;16.70;99.90;;;;;;5014057;28;20052;-64
2022/10/17 01:41:25;;;;;;;5.55;1.90;;;16.60;99.90;;;;;;5034491;28;20048;-63
2022/10/17 01:43:58;;;;;;;13.23;2.53;;;16.60;99.90;;;;;;5051326;28;20060;-63
2022/10/17 01:46:31;;;;;;;7.47;2.60;;;16.50;99.90;;;;;;5033472;28;20128;-64
2022/10/17 01:48:59;;;;;;;5.88;2.00;;;16.50;99.90;;;;;;5049354;28;20060;-63
2022/10/17 01:51:28;;;;;;;9.80;2.10;;;16.50;99.90;;;;;;5032382;28;20056;-65
2022/10/17 01:54:04;;;;;;;12.32;2.72;;;16.50;99.90;;;;;;5016303;28;20044;-65
2022/10/17 01:56:31;;;;;;;7.78;2.42;;;16.50;99.90;;;;;;5048710;28;20045;-64
2022/10/17 01:59:05;;;;;;;11.00;3.22;;;16.50;99.90;;;;;;5049382;28;20045;-63
2022/10/17 02:01:32;;;;;;;9.77;2.50;;;16.50;99.90;;;;;;5032753;28;20052;-63
2022/10/17 02:03:59;;;;;;;13.18;2.92;;;16.50;99.90;;;;;;5048820;28;20081;-65
2022/10/17 02:06:25;;;;;;;11.50;2.63;;;16.60;99.90;;;;;;5050178;28;20048;-63
2022/10/17 02:08:52;;;;;;;9.32;2.50;;;16.60;99.90;;;;;;5050263;28;20057;-64
2022/10/17 02:11:23;;;;;;;8.70;2.10;;;16.60;99.90;;;;;;5050056;28;20037;-64
2022/10/17 02:14:04;;;;;;;7.85;1.95;;;16.70;99.90;;;;;;5049895;28;20066;-62
2022/10/17 02:16:57;;;;;;;7.80;2.13;;;16.70;99.90;;;;;;5049029;28;20530;-63
2022/10/17 02:19:35;;;;;;;15.70;2.47;;;16.70;99.90;;;;;;5039481;28;20051;-63
2022/10/17 02:22:20;;;;;;;7.35;1.80;;;16.70;99.90;;;;;;5049667;28;20074;-63
2022/10/17 02:25:07;;;;;;;8.00;1.65;;;16.70;99.90;;;;;;5049640;28;20048;-64
2022/10/17 02:27:33;;;;;;;8.52;2.25;;;16.70;99.90;;;;;;5031913;28;20205;-63
2022/10/17 02:30:13;;;;;;;17.17;3.45;;;16.70;99.90;;;;;;5048403;28;20055;-63
2022/10/17 02:32:51;;;;;;;7.70;1.92;;;16.70;99.90;;;;;;5047746;28;20053;-63
2022/10/17 02:35:18;;;;;;;13.35;2.13;;;16.70;99.90;;;;;;5028162;28;20053;-64
2022/10/17 02:37:45;;;;;;;9.32;2.28;;;16.70;99.90;;;;;;5044715;28;20045;-64
2022/10/17 02:40:13;;;;;;;11.32;2.17;;;16.70;99.90;;;;;;5048110;28;20045;-63
2022/10/17 02:42:40;;;;;;;10.57;2.83;;;16.70;99.90;;;;;;5048712;28;20047;-63
2022/10/17 02:45:07;;;;;;;11.32;2.13;;;16.70;99.90;;;;;;5048936;28;20045;-64
2022/10/17 02:47:43;;;;;;;7.75;2.45;;;16.70;99.90;;;;;;5047669;28;20273;-64
2022/10/17 02:50:10;;;;;;;10.43;2.08;;;16.70;99.90;;;;;;5049007;28;20071;-64
2022/10/17 02:52:42;;;;;;;11.82;2.35;;;16.70;99.90;;;;;;5048702;28;20052;-64
2022/10/17 02:55:13;;;;;;;8.60;2.65;;;16.60;99.90;;;;;;5047871;28;20053;-64
2022/10/17 02:57:48;;;;;;;12.35;2.42;;;16.60;99.90;;;;;;5031159;28;20063;-65
2022/10/17 03:00:16;;;;;;;12.85;2.55;;;16.60;99.90;;;;;;5048693;28;20284;-63
2022/10/17 03:02:45;;;;;;;9.23;1.73;;;16.60;99.90;;;;;;5047190;28;20041;-62
2022/10/17 03:05:27;;;;;;;8.77;2.20;;;16.60;99.90;;;;;;5047381;28;20056;-63
2022/10/17 03:07:54;;;;;;;10.05;2.35;;;16.60;99.90;;;;;;5048533;28;20052;-65
2022/10/17 03:10:21;;;;;;;11.07;2.17;;;16.60;99.90;;;;;;5048694;28;20135;-63
2022/10/17 03:12:48;;;;;;;10.02;1.75;;;16.60;99.90;;;;;;5048343;28;20049;-63
2022/10/17 03:15:15;;;;;;;5.57;1.92;;;16.60;99.90;;;;;;5048434;28;20132;-62
2022/10/17 03:17:41;;;;;;;7.25;2.55;;;16.60;99.90;;;;;;5048612;28;20068;-63
2022/10/17 03:20:09;;;;;;;7.57;2.15;;;16.60;99.90;;;;;;5047383;28;20436;-63
2022/10/17 03:22:35;;;;;;;9.73;1.90;;;16.60;99.90;;;;;;5048303;28;20049;-63
2022/10/17 03:25:02;;;;;;;7.97;2.30;;;16.50;99.90;;;;;;5047891;28;20053;-63
2022/10/17 03:27:29;;;;;;;5.72;2.00;;;16.50;99.90;;;;;;5048263;28;20416;-63
2022/10/17 03:29:56;;;;;;;15.35;2.75;;;16.50;99.90;;;;;;5047425;28;20057;-65
2022/10/17 03:32:23;;;;;;;13.07;1.90;;;16.50;99.90;;;;;;5048410;28;20303;-65
2022/10/17 03:34:49;;;;;;;16.85;4.60;;;16.40;99.90;;;;;;5046314;28;20057;-65
2022/10/17 03:37:16;;;;;;;7.75;1.92;;;16.40;99.90;;;;;;5048054;28;20048;-64
2022/10/17 03:39:43;;;;;;;8.68;1.90;;;16.40;99.90;;;;;;5047528;28;20040;-62
2022/10/17 03:42:10;;;;;;;18.23;2.38;;;16.40;99.90;;;;;;5047681;28;20055;-63
2022/10/17 03:44:36;;;;;;;8.35;2.22;;;16.40;99.90;;;;;;5047378;28;20041;-62
2022/10/17 03:47:03;;;;;;;10.57;2.20;;;16.40;99.90;;;;;;5046721;28;20077;-64
2022/10/17 03:49:30;;;;;;;9.60;1.95;;;16.40;99.90;;;;;;5047715;28;20040;-64
2022/10/17 03:51:56;;;;;;;6.13;2.03;;;16.40;99.90;;;;;;5047931;28;20052;-62
2022/10/17 03:54:23;;;;;;;14.88;2.70;;;16.40;99.90;;;;;;5047623;28;20123;-64
2022/10/17 03:56:50;;;;;;;5.72;2.05;;;16.40;99.90;;;;;;5048130;28;20451;-63
2022/10/17 03:59:17;;;;;;;13.82;1.73;;;16.50;99.90;;;;;;5046000;28;20139;-63
2022/10/17 04:01:47;;;;;;;6.70;1.58;;;16.50;99.90;;;;;;5047924;28;20072;-63
2022/10/17 04:04:13;;;;;;;6.60;1.65;;;16.50;99.90;;;;;;5043140;28;20198;-64
2022/10/17 04:06:40;;;;;;;9.20;2.30;;;16.40;99.90;;;;;;5041053;28;20048;-64
2022/10/17 04:09:07;;;;;;;9.77;1.80;;;16.40;99.90;;;;;;5047499;28;20291;-64
2022/10/17 04:11:34;;;;;;;14.43;2.85;;;16.40;99.90;;;;;;5047360;28;20083;-64
2022/10/17 04:14:00;;;;;;;10.23;1.80;;;16.40;99.90;;;;;;5047777;28;20064;-63
2022/10/17 04:16:27;;;;;;;13.13;2.33;;;16.50;99.90;;;;;;5047458;28;20057;-63
2022/10/17 04:18:55;;;;;;;7.43;1.80;;;16.50;99.90;;;;;;5047698;28;20551;-64
2022/10/17 04:21:23;;;;;;;16.23;3.83;;;16.50;99.90;;;;;;5047810;28;20052;-63
2022/10/17 04:23:56;;;;;;;10.98;2.05;;;16.50;99.90;;;;;;5046147;28;20055;-63
2022/10/17 04:26:23;;;;;;;10.07;2.58;;;16.50;99.90;;;;;;5047851;28;20052;-63
2022/10/17 04:28:50;;;;;;;8.93;1.85;;;16.50;99.90;;;;;;5047407;28;20053;-64
2022/10/17 04:31:17;;;;;;;15.75;2.97;;;16.50;99.90;;;;;;5047552;28;20060;-63
2022/10/17 04:33:47;;;;;;;11.18;2.67;;;16.50;99.90;;;;;;5047584;28;20064;-64
2022/10/17 04:36:16;;;;;;;8.15;1.83;;;16.50;99.90;;;;;;5047795;28;20576;-64
2022/10/17 04:38:43;;;;;;;12.90;2.00;;;16.50;99.90;;;;;;5046482;28;20354;-64
2022/10/17 04:41:11;;;;;;;13.25;2.30;;;16.50;99.90;;;;;;5047461;28;20047;-64
2022/10/17 04:43:38;;;;;;;6.78;2.20;;;16.50;99.90;;;;;;5047719;28;20049;-63
2022/10/17 04:46:12;;;;;;;18.08;2.10;;;16.40;99.90;;;;;;5047142;28;20053;-63
2022/10/17 04:48:39;;;;;;;11.02;1.92;;;16.40;99.90;;;;;;5047402;28;20068;-63
2022/10/17 04:51:07;;;;;;;10.18;2.03;;;16.40;99.90;;;;;;5047163;28;20051;-63
2022/10/17 04:53:35;;;;;;;20.25;2.30;;;16.40;99.90;;;;;;5047516;28;20135;-63
2022/10/17 04:56:10;;;;;;;6.70;1.52;;;16.40;99.90;;;;;;5049503;28;20393;-64
2022/10/17 04:58:37;;;;;;;10.25;2.22;;;16.40;99.90;;;;;;5040151;28;20041;-64
2022/10/17 05:01:07;;;;;;;9.48;2.30;;;16.40;99.90;;;;;;5050881;28;20500;-63
2022/10/17 05:03:35;;;;;;;15.18;1.90;;;16.40;99.90;;;;;;5050757;28;20045;-62
2022/10/17 05:06:21;;;;;;;13.20;2.10;;;16.40;99.90;;;;;;5050838;28;20129;-63
2022/10/17 05:08:48;;;;;;;11.65;2.00;;;16.40;99.90;;;;;;5049817;28;20060;-64
2022/10/17 05:11:22;;;;;;;11.45;2.28;;;16.40;99.90;;;;;;5050527;28;20049;-64
2022/10/17 05:13:56;;;;;;;9.05;2.63;;;16.30;99.90;;;;;;5050607;28;20577;-63
2022/10/17 05:16:23;;;;;;;8.70;2.30;;;16.40;99.90;;;;;;5050650;28;20052;-64
2022/10/17 05:18:50;;;;;;;16.73;2.20;;;16.30;99.90;;;;;;5046849;28;20061;-65
2022/10/17 05:21:18;;;;;;;12.00;2.42;;;16.30;99.90;;;;;;5050627;28;20135;-64
2022/10/17 05:23:45;;;;;;;22.10;2.80;;;16.30;99.90;;;;;;5050641;28;20049;-64
2022/10/17 05:26:12;;;;;;;14.30;2.50;;;16.20;99.90;;;;;;5050386;28;20053;-63
2022/10/17 05:28:39;;;;;;;16.35;2.22;;;16.20;99.90;;;;;;5049978;28;20045;-63
2022/10/17 05:31:06;;;;;;;17.70;3.28;;;16.10;99.90;;;;;;5050626;28;20135;-63
2022/10/17 05:33:33;;;;;;;8.18;2.17;;;16.10;99.90;;;;;;5048724;28;20067;-63
2022/10/17 05:36:00;;;;;;;12.63;3.10;;;16.00;99.90;;;;;;5050626;28;20508;-62
2022/10/17 05:38:27;;;;;;;14.25;2.25;;;16.00;99.90;;;;;;5048877;28;20045;-62
2022/10/17 05:41:00;;;;;;;11.77;2.42;;;16.00;99.90;;;;;;5050023;28;20079;-62
2022/10/17 05:43:27;;;;;;;14.65;2.90;;;16.00;99.90;;;;;;5049888;28;20494;-61
2022/10/17 05:45:54;;;;;;;14.27;2.58;;;16.00;99.90;;;;;;5050257;28;20092;-63
2022/10/17 05:48:21;;;;;;;13.02;2.38;;;15.90;99.90;;;;;;5049686;28;20041;-63
2022/10/17 05:50:48;;;;;;;11.93;2.22;;;15.90;99.90;;;;;;5049936;28;20056;-64
2022/10/17 05:53:15;;;;;;;15.63;2.70;;;15.90;99.90;;;;;;5049517;28;20124;-64
2022/10/17 05:55:42;;;;;;;9.65;2.25;;;15.80;99.90;;;;;;5031930;28;20500;-64
2022/10/17 05:58:09;;;;;;;15.95;2.70;;;15.80;99.90;;;;;;5049717;28;20085;-65
2022/10/17 06:00:47;;;;;;;16.80;2.80;;;15.80;99.90;;;;;;5039701;28;20048;-64
2022/10/17 06:03:14;;;;;;;12.80;3.15;;;15.80;99.90;;;;;;5048440;28;20128;-65
2022/10/17 06:05:41;;;;;;;13.77;2.28;;;15.80;99.90;;;;;;5048227;28;20055;-66
2022/10/17 06:08:08;;;;;;;22.00;3.22;;;15.80;99.90;;;;;;5049209;28;20488;-66
2022/10/17 06:10:34;;;;;;;15.98;2.75;;;15.80;99.90;;;;;;5049658;28;20044;-66
2022/10/17 06:13:01;;;;;;;11.90;2.83;;;15.70;99.90;;;;;;5049515;28;20075;-67
2022/10/17 06:15:28;;;;;;;13.38;2.42;;;15.70;99.90;;;;;;5049057;28;20068;-67
2022/10/17 06:17:54;;;;;;;18.42;3.25;;;15.70;99.90;;;;;;5049560;28;20081;-67
2022/10/17 06:20:21;;;;;;;21.88;3.85;;;15.70;99.90;;;;;;5049106;28;20049;-67
2022/10/17 06:22:48;;;;;;;18.48;3.78;;;15.70;99.90;;;;;;5049204;28;20224;-68
2022/10/17 06:25:14;;;;;;;15.27;3.88;;;15.70;99.90;;;;;;5049187;28;20075;-70
2022/10/17 06:27:41;;;;;;;16.15;3.90;;;15.70;99.90;;;;;;5048139;28;20313;-69
2022/10/17 06:30:09;;;;;;;18.42;3.58;;;15.70;99.90;;;;;;5047662;28;20493;-69
2022/10/17 06:32:35;;;;;;;8.68;2.40;;;15.70;99.90;;;;;;5047711;28;20510;-69
2022/10/17 06:35:02;;;;;;;10.05;2.40;;;15.60;99.90;;;;;;5048302;28;20037;-68
2022/10/17 06:37:32;;;;;;;13.52;1.70;;;15.70;99.90;;;;;;5043111;28;20051;-68
2022/10/17 06:40:03;;;;;;;6.68;2.13;;;15.60;99.90;;;;;;5048380;28;20103;-68
2022/10/17 06:42:30;;;;;;;11.60;1.63;;;15.60;99.90;;;;;;5049055;28;20053;-67
2022/10/17 06:44:57;;;;;;;10.23;2.58;;;15.60;99.90;;;;;;5043218;28;20487;-68
2022/10/17 06:47:23;;;;;;;8.52;2.33;;;15.60;99.90;;;;;;5049018;28;20055;-66
2022/10/17 06:49:50;;;;;;;11.68;1.75;;;15.60;99.90;;;;;;5047412;28;20057;-69
2022/10/17 06:52:17;;;;;;;5.20;1.58;;;15.60;99.90;;;;;;5048751;28;20504;-69
2022/10/17 06:54:44;;;;;;;7.30;1.45;;;15.60;99.90;;;;;;5047291;28;20041;-69
2022/10/17 06:57:10;;;;;;;10.00;1.75;;;15.60;99.90;;;;;;5048244;28;20408;-69
2022/10/17 06:59:37;;;;;;;5.53;1.42;;;15.60;99.90;;;;;;5047832;28;20053;-66
2022/10/17 07:02:05;;;;;;;4.32;1.70;;;15.60;99.90;;;;;;5046651;28;20106;-68
2022/10/17 07:04:32;;;;;;;8.00;1.35;;;15.50;99.90;;;;;;5047731;28;20075;-68
2022/10/17 07:07:01;;;;;;;4.40;1.27;;;15.50;99.90;;;;;;5048215;28;20045;-68
2022/10/17 07:09:29;;;;;;;8.50;1.67;;;15.50;99.90;;;;;;5048173;28;20069;-69
2022/10/17 07:11:56;;;;;;;4.82;1.25;;;15.50;99.90;;;;;;5042947;28;20492;-69
2022/10/17 07:14:23;;;;;;;8.13;1.38;;;15.40;99.90;;;;;;5047828;28;20056;-68
2022/10/17 07:16:49;;;;;;;9.30;1.25;;;15.40;99.90;;;;;;5047477;28;20049;-68
2022/10/17 07:19:16;;;;;;;3.47;1.00;;;15.40;99.90;;;;;;4696286;28;10000551;-67
2022/10/17 07:21:43;;;;;;;7.10;2.13;;;15.30;99.90;;;;;;5045206;28;20055;-70
2022/10/17 07:24:09;;;;;;;7.95;1.80;;;15.30;99.90;;;;;;5045651;28;20102;-69
2022/10/17 07:26:36;;;;;;;10.63;3.40;;;15.20;99.90;;;;;;5045159;28;20056;-69
2022/10/17 07:29:05;;;;;;;7.68;1.50;;;15.20;99.90;;;;;;5043508;28;20519;-69
2022/10/17 07:31:32;;;;;;;13.48;2.97;;;15.20;99.90;;;;;;5045148;28;20052;-69
2022/10/17 07:33:59;;;;;;;10.38;1.45;;;15.20;99.90;;;;;;5045007;28;20045;-68
2022/10/17 07:36:26;;;;;;;6.68;1.50;;;15.20;99.90;;;;;;5043294;28;20052;-69
2022/10/17 07:38:53;;;;;;;5.10;1.10;;;15.20;99.90;;;;;;5045043;28;20114;-69
2022/10/17 07:41:19;;;;;;;3.97;1.75;;;15.20;99.90;;;;;;5045166;28;20053;-69
2022/10/17 07:43:47;;;;;;;12.23;1.45;;;15.20;99.90;;;;;;5044627;28;20040;-68
2022/10/17 07:46:14;;;;;;;7.13;1.90;;;15.20;99.90;;;;;;5044817;28;20071;-70
2022/10/17 07:48:41;;;;;;;5.45;1.92;;;15.10;99.90;;;;;;5043996;28;20053;-68
2022/10/17 07:51:08;;;;;;;11.07;1.95;;;15.20;99.90;;;;;;5044867;28;20251;-69
2022/10/17 07:53:36;;;;;;;5.50;1.48;;;15.20;99.90;;;;;;5044653;28;20045;-71
2022/10/17 07:56:07;;;;;;;5.70;1.52;;;15.20;99.90;;;;;;5044781;28;20048;-70
2022/10/17 07:58:34;;;;;;;10.73;2.30;;;15.20;99.90;;;;;;5042957;28;20049;-70
2022/10/17 08:01:02;;;;;;;14.93;2.35;;;15.30;99.90;;;;;;5045004;28;20376;-70
2022/10/17 08:03:29;;;;;;;5.88;1.50;;;15.30;99.90;;;;;;5044569;28;20049;-70
2022/10/17 08:05:59;;;;;;;5.65;1.38;;;15.30;99.90;;;;;;5044852;28;20495;-69
2022/10/17 08:08:26;;;;;;;6.40;1.48;;;15.30;99.90;;;;;;5043278;28;20490;-70
2022/10/17 08:10:54;;;;;;;7.15;1.48;;;15.30;99.90;;;;;;5044941;28;20351;-69
2022/10/17 08:13:21;;;;;;;9.20;1.25;;;15.30;99.90;;;;;;5044654;28;20494;-68
2022/10/17 08:15:48;;;;;;;8.68;1.95;;;15.30;99.90;;;;;;5041088;28;20042;-69
2022/10/17 08:18:17;;;;;;;11.75;1.98;;;15.30;99.90;;;;;;5042211;28;20080;-68
2022/10/17 08:20:44;;;;;;;5.72;1.58;;;15.30;99.90;;;;;;5045023;28;20049;-71
2022/10/17 08:23:11;;;;;;;14.00;1.85;;;15.40;99.90;;;;;;5044309;28;20436;-70
2022/10/17 08:25:38;;;;;;;8.32;1.65;;;15.30;99.90;;;;;;5044504;28;20045;-70
2022/10/17 08:28:05;;;;;;;12.63;1.70;;;15.40;99.90;;;;;;5044446;28;20336;-68
2022/10/17 08:30:33;;;;;;;7.72;1.67;;;15.40;99.90;;;;;;5048087;28;20084;-69
2022/10/17 08:33:00;;;;;;;9.68;2.13;;;15.40;99.90;;;;;;5048943;28;20061;-71
2022/10/17 08:35:27;;;;;;;14.07;3.08;;;15.40;99.90;;;;;;5047074;28;20048;-71
2022/10/17 08:37:54;;;;;;;9.15;1.77;;;15.40;99.90;;;;;;5047280;28;20475;-68
2022/10/17 08:40:25;;;;;;;13.25;1.83;;;15.40;99.90;;;;;;5047656;28;20107;-71
2022/10/17 08:42:58;;;;;;;18.00;2.28;;;15.50;99.90;;;;;;5031418;28;20133;-68
2022/10/17 08:45:28;;;;;;;7.85;1.65;;;15.50;99.90;;;;;;5048109;28;20539;-70
2022/10/17 08:47:59;;;;;;;9.93;2.60;;;15.50;99.90;;;;;;5048622;28;20131;-69
2022/10/17 08:50:52;;;;;;;4.88;1.90;;;15.60;99.90;;;;;;5046917;28;20061;-69
2022/10/17 08:53:21;;;;;;;14.27;2.85;;;15.60;99.90;;;;;;5048736;28;20048;-68
2022/10/17 08:55:49;;;;;;;15.27;3.45;;;15.70;99.90;;;;;;5048420;28;20048;-68
2022/10/17 08:58:32;;;;;;;11.88;2.08;;;15.70;99.90;;;;;;5048688;28;20048;-69
2022/10/17 09:01:31;;;;;;;11.13;2.20;;;15.70;99.90;;;;;;5046763;28;20385;-68
2022/10/17 09:04:14;;;;;;;7.97;2.00;;;15.70;99.90;;;;;;5047127;28;20503;-68
2022/10/17 09:06:51;;;;;;;14.52;2.90;;;15.80;99.90;;;;;;5045450;28;20499;-68
2022/10/17 09:09:38;;;;;;;12.63;2.00;;;15.80;99.90;;;;;;5030349;28;20059;-68
2022/10/17 09:12:16;;;;;;;18.00;2.40;;;15.90;99.90;;;;;;5026022;28;20037;-67
2022/10/17 09:15:17;;;;;;;12.75;2.38;;;15.90;99.90;;;;;;5046195;28;20168;-68
2022/10/17 09:18:01;;;;;;;14.60;2.38;;;16.00;99.90;;;;;;5044461;28;20057;-69
2022/10/17 09:20:38;;;;;;;11.85;2.20;;;16.00;99.90;;;;;;5046635;28;20420;-70
2022/10/17 09:23:12;;;;;;;14.07;2.47;;;16.10;99.90;;;;;;5046580;28;20080;-69
2022/10/17 09:25:44;;;;;;;15.15;2.42;;;16.10;99.90;;;;;;5046250;28;20129;-69
2022/10/17 09:28:21;;;;;;;10.57;1.92;;;16.10;99.90;;;;;;5029877;28;20059;-71
2022/10/17 09:31:03;;;;;;;19.25;2.20;;;16.10;99.90;;;;;;5047444;28;20499;-67
2022/10/17 09:33:41;;;;;;;10.60;2.28;;;16.10;99.90;;;;;;5046483;28;20052;-68
2022/10/17 09:36:25;;;;;;;14.57;2.88;;;16.20;99.90;;;;;;5046415;28;20260;-68
2022/10/17 09:38:53;;;;;;;11.40;2.50;;;16.20;99.90;;;;;;5046039;28;20562;-68
2022/10/17 09:41:44;;;;;;;18.27;3.67;;;16.10;99.90;;;;;;5046448;28;20053;-68
2022/10/17 09:44:19;;;;;;;15.57;2.80;;;16.20;99.90;;;;;;5044439;28;20509;-67
2022/10/17 09:47:06;;;;;;;13.85;3.42;;;16.10;99.90;;;;;;5045772;28;20742;-68
2022/10/17 09:49:41;;;;;;;20.60;2.60;;;16.20;99.90;;;;;;5046880;28;20584;-68
2022/10/17 09:52:34;;;;;;;14.23;2.58;;;16.20;99.90;;;;;;5047458;28;20057;-68
2022/10/17 09:55:16;;;;;;;14.83;4.13;;;16.20;99.90;;;;;;5026024;28;20050;-67
2022/10/17 09:57:59;;;;;;;14.00;4.25;;;16.10;99.90;;;;;;5031439;28;20319;-67
2022/10/17 10:00:30;;;;;;;15.93;3.00;;;16.10;99.90;;;;;;5047285;28;20139;-67
2022/10/17 10:03:11;;;;;;;19.92;4.35;;;16.10;99.90;;;;;;5047266;28;20064;-67
2022/10/17 10:05:39;;;;;;;19.15;3.35;;;16.20;99.90;;;;;;5045506;28;20043;-66
2022/10/17 10:08:16;;;;;;;20.70;4.72;;;16.20;99.90;;;;;;5047665;28;20515;-67
2022/10/17 10:10:43;;;;;;;25.13;4.35;;;16.20;99.90;;;;;;5047650;28;20048;-67
2022/10/17 10:13:13;;;;;;;26.65;3.80;;;16.30;99.90;;;;;;5047829;28;20066;-67
2022/10/17 10:15:41;;;;;;;14.38;2.58;;;16.40;99.90;;;;;;5047471;28;20044;-68
2022/10/17 10:18:23;;;;;;;26.95;3.65;;;16.30;99.90;;;;;;5046547;28;20060;-67
2022/10/17 10:21:07;;;;;;;18.98;4.10;;;16.40;99.90;;;;;;5026802;28;20401;-68
2022/10/17 10:23:38;;;;;;;24.10;3.80;;;16.40;99.90;;;;;;5044473;28;20048;-69
2022/10/17 10:26:49;;;;;;;21.13;3.45;;;16.60;99.90;;;;;;5046201;28;20076;-67
2022/10/17 10:29:29;;;;;;;15.23;2.38;;;16.70;99.90;;;;;;5043142;28;20055;-68
2022/10/17 10:32:06;;;;;;;16.85;2.60;;;16.80;99.90;;;;;;5048408;28;20045;-66
2022/10/17 10:34:34;;;;;;;23.80;4.18;;;16.90;99.90;;;;;;5047806;28;20056;-67
2022/10/17 10:37:06;;;;;;;18.33;3.78;;;16.90;99.90;;;;;;5047593;28;20091;-67
2022/10/17 10:39:46;;;;;;;12.82;3.15;;;16.90;99.90;;;;;;5046185;28;20389;-68
2022/10/17 10:42:25;;;;;;;15.13;2.30;;;17.00;99.90;;;;;;5049161;28;20151;-68
2022/10/17 10:44:54;;;;;;;21.17;3.03;;;17.10;99.90;;;;;;5046265;28;20390;-68
2022/10/17 10:47:28;;;;;;;15.02;4.13;;;17.20;99.90;;;;;;5048824;28;20133;-68
2022/10/17 10:50:17;;;;;;;22.58;3.72;;;17.10;99.90;;;;;;5048026;28;20419;-68
2022/10/17 10:52:48;;;;;;;13.35;2.53;;;17.20;99.90;;;;;;5048966;28;20063;-68
2022/10/17 10:55:31;;;;;;;12.60;2.97;;;17.20;99.90;;;;;;5049213;28;20051;-65
2022/10/17 10:58:03;;;;;;;15.85;3.05;;;17.20;99.90;;;;;;5051172;28;20041;-67
2022/10/17 11:00:31;;;;;;;17.40;2.75;;;17.20;99.90;;;;;;5050640;28;20392;-67
2022/10/17 11:03:20;;;;;;;25.23;3.33;;;17.30;99.90;;;;;;5047658;28;20048;-68
2022/10/17 11:06:01;;;;;;;17.20;3.55;;;17.30;99.90;;;;;;5049776;28;20162;-67
2022/10/17 11:08:30;;;;;;;9.45;1.98;;;17.30;99.90;;;;;;5033383;28;20319;-68
2022/10/17 11:11:17;;;;;;;12.05;3.13;;;17.40;99.90;;;;;;5048143;28;20047;-67
2022/10/17 11:14:04;;;;;;;9.38;2.20;;;17.40;99.90;;;;;;5047068;28;20048;-67
2022/10/17 11:16:34;;;;;;;19.65;2.45;;;17.40;99.90;;;;;;5040171;28;20411;-68
2022/10/17 11:19:12;;;;;;;14.63;2.58;;;17.40;99.90;;;;;;5048035;28;20534;-67
2022/10/17 11:21:55;;;;;;;16.00;2.97;;;17.40;99.90;;;;;;5048330;28;20041;-67
2022/10/17 11:24:33;;;;;;;19.52;3.17;;;17.40;99.90;;;;;;5047062;28;20080;-68
2022/10/17 11:27:02;;;;;;;14.98;2.50;;;17.40;99.90;;;;;;5046810;28;20124;-68
2022/10/17 11:29:33;;;;;;;14.50;2.75;;;17.40;99.90;;;;;;5048416;28;20049;-69
2022/10/17 11:32:07;;;;;;;16.23;3.45;;;17.50;99.90;;;;;;5049126;28;20128;-67
2022/10/17 11:34:38;;;;;;;13.23;2.47;;;17.50;99.90;;;;;;5032672;28;20403;-67
2022/10/17 11:37:20;;;;;;;15.65;3.67;;;17.60;99.90;;;;;;5048891;28;20527;-68
2022/10/17 11:39:50;;;;;;;11.90;2.50;;;17.60;99.90;;;;;;5032608;28;20077;-67
2022/10/17 11:42:26;;;;;;;12.95;2.78;;;17.60;99.90;;;;;;5049883;28;20127;-67
2022/10/17 11:45:14;;;;;;;15.75;2.67;;;17.70;99.90;;;;;;5049268;28;20101;-67
2022/10/17 11:47:57;;;;;;;25.45;2.75;;;17.70;99.90;;;;;;5032648;28;20519;-66
2022/10/17 11:50:30;;;;;;;14.77;2.45;;;17.70;99.90;;;;;;5047308;28;20037;-66
2022/10/17 11:53:26;;;;;;;20.70;2.40;;;17.70;99.90;;;;;;5048159;28;20095;-67
2022/10/17 11:55:53;;;;;;;14.30;2.67;;;17.80;99.90;;;;;;5026672;28;20511;-66
2022/10/17 11:58:40;;;;;;;14.82;3.00;;;17.90;99.90;;;;;;5047135;28;20438;-67
2022/10/17 12:01:16;;;;;;;15.73;3.38;;;17.90;99.90;;;;;;5046893;28;20041;-66
2022/10/17 12:03:55;;;;;;;9.68;2.05;;;17.90;99.90;;;;;;5047436;28;20059;-67
2022/10/17 12:06:49;;;;;;;13.38;2.67;;;17.90;99.90;;;;;;4695898;28;9999985;-67
2022/10/17 12:09:25;;;;;;;14.05;2.25;;;17.80;99.90;;;;;;5029454;28;20060;-68
2022/10/17 12:11:56;;;;;;;12.52;2.25;;;17.80;99.90;;;;;;5047508;28;20059;-68
2022/10/17 12:14:45;;;;;;;15.82;2.13;;;17.80;99.90;;;;;;5052405;28;20045;-65
2022/10/17 12:17:31;;;;;;;12.10;2.65;;;17.70;99.90;;;;;;5051657;28;20057;-66
2022/10/17 12:20:23;;;;;;;17.08;3.90;;;17.70;99.90;;;;;;5050620;28;20052;-66
2022/10/17 12:22:54;;;;;;;13.15;3.80;;;17.80;99.90;;;;;;5050520;28;20057;-66
2022/10/17 12:25:29;;;;;;;13.75;2.55;;;17.80;99.90;;;;;;5050672;28;20056;-66
2022/10/17 12:28:06;;;;;;;12.57;2.88;;;17.80;99.90;;;;;;5051372;28;20067;-66
2022/10/17 12:30:33;;;;;;;14.95;3.08;;;17.80;99.90;;;;;;5050291;28;20045;-67
2022/10/17 12:33:04;;;;;;;12.65;3.05;;;17.90;99.90;;;;;;5032523;28;20456;-68
2022/10/17 12:35:34;;;;;;;18.25;2.47;;;17.90;99.90;;;;;;5050368;28;20049;-67
2022/10/17 12:38:23;;;;;;;16.48;2.25;;;17.90;99.90;;;;;;5050896;28;20056;-67
2022/10/17 12:40:54;;;;;;;21.40;3.45;;;18.00;99.90;;;;;;5051419;28;20045;-67
2022/10/17 12:43:27;;;;;;;13.93;2.53;;;18.00;99.90;;;;;;5050900;28;20079;-67
2022/10/17 12:45:58;;;;;;;15.25;2.08;;;18.00;99.90;;;;;;5051131;28;20059;-67
2022/10/17 12:48:37;;;;;;;12.48;2.35;;;18.00;99.90;;;;;;5049617;28;20148;-67
2022/10/17 12:51:17;;;;;;;12.35;2.20;;;18.00;99.90;;;;;;5051451;28;20053;-66
2022/10/17 12:54:11;;;;;;;12.50;2.45;;;18.00;99.90;;;;;;5050997;28;20116;-67
2022/10/17 12:56:40;;;;;;;21.02;3.95;;;18.10;99.90;;;;;;5050832;28;20511;-66
2022/10/17 12:59:21;;;;;;;15.80;3.15;;;18.10;99.90;;;;;;5050989;28;20041;-67
2022/10/17 13:01:50;;;;;;;16.25;3.33;;;18.10;99.90;;;;;;5035117;28;20075;-66
2022/10/17 13:04:17;;;;;;;12.73;2.13;;;18.10;99.90;;;;;;5049494;28;20045;-67
2022/10/17 13:06:46;;;;;;;25.40;2.83;;;18.10;99.90;;;;;;5049659;28;20130;-67